Time;durP1;ratioP1;P1;durP2;ratioP2;P2;SDS_P1;SDS_P2;PMS_P1;PMS_P2;Temp;Humidity;BMP_temperature;BMP_pressure;BME280_temperature;BME280_humidity;BME280_pressure;Samples;Min_cycle;Max_cycle;Signal;HPM_P1;HPM_P2
2022/11/07 00:02:10;;;;;;;2.67;1.77;;;;;;;15.85;100.00;96239.34;5095519;28;20087;-49
2022/11/07 00:04:38;;;;;;;2.30;1.65;;;;;;;15.72;100.00;96247.94;5100784;28;20686;-51
2022/11/07 00:07:07;;;;;;;3.22;1.73;;;;;;;15.68;100.00;96248.50;5097579;28;20083;-44
2022/11/07 00:09:35;;;;;;;1.92;1.48;;;;;;;15.89;100.00;96241.44;5091408;28;20079;-45
2022/11/07 00:12:04;;;;;;;2.75;1.77;;;;;;;15.91;100.00;96249.25;5090898;28;20076;-43
2022/11/07 00:14:34;;;;;;;1.80;1.55;;;;;;;15.68;100.00;96254.66;5092265;28;20084;-49
2022/11/07 00:17:02;;;;;;;2.60;1.70;;;;;;;15.38;100.00;96251.91;5097083;28;20095;-43
2022/11/07 00:19:31;;;;;;;1.95;1.60;;;;;;;15.52;100.00;96254.75;5096494;28;20451;-44
2022/11/07 00:21:59;;;;;;;2.97;1.67;;;;;;;15.41;100.00;96256.84;5103247;28;20467;-47
2022/11/07 00:24:27;;;;;;;1.95;1.58;;;;;;;15.82;100.00;96258.31;5097088;28;20087;-44
2022/11/07 00:26:56;;;;;;;2.30;1.70;;;;;;;15.66;100.00;96260.16;5100191;28;20079;-42
2022/11/07 00:29:24;;;;;;;2.30;1.70;;;;;;;16.55;90.94;96267.28;5094185;28;20091;-44
2022/11/07 00:31:54;;;;;;;2.47;1.50;;;;;;;16.09;96.81;96273.66;5103482;28;20080;-42
2022/11/07 00:34:22;;;;;;;2.60;1.67;;;;;;;16.65;88.28;96266.97;5103067;28;20483;-44
2022/11/07 00:36:51;;;;;;;2.55;1.80;;;;;;;16.85;83.85;96276.06;5097921;28;20087;-47
2022/11/07 00:39:19;;;;;;;2.20;1.60;;;;;;;17.28;78.65;96276.91;5102175;28;20103;-43
2022/11/07 00:41:48;;;;;;;4.25;1.92;;;;;;;16.93;81.36;96275.97;5097016;28;20079;-42
2022/11/07 00:44:16;;;;;;;5.80;1.70;;;;;;;17.48;76.05;96270.91;5098047;28;20086;-43
2022/11/07 00:46:44;;;;;;;2.22;1.60;;;;;;;17.47;74.29;96277.25;5104499;28;20084;-45
2022/11/07 00:49:14;;;;;;;1.90;1.70;;;;;;;17.79;73.39;96284.75;5095042;28;20099;-43
2022/11/07 00:51:42;;;;;;;2.67;2.00;;;;;;;17.92;71.27;96283.19;5100622;28;20083;-47
2022/11/07 00:54:11;;;;;;;3.95;2.13;;;;;;;17.92;71.67;96283.19;5103759;28;20079;-46
2022/11/07 00:56:39;;;;;;;1.80;1.63;;;;;;;17.98;69.94;96285.06;5100339;28;20091;-51
2022/11/07 00:59:08;;;;;;;3.30;1.70;;;;;;;18.13;69.73;96292.97;5102895;28;20765;-43
2022/11/07 01:01:36;;;;;;;2.05;1.85;;;;;;;17.85;68.47;96292.97;5105685;28;20079;-43
2022/11/07 01:06:52;;;;;;;3.63;1.60;;;;;;;18.00;68.41;96293.72;5091898;28;20083;-46
2022/11/07 01:09:44;;;;;;;2.20;1.60;;;;;;;18.19;67.44;96297.53;5101349;28;20088;-46
2022/11/07 01:12:12;;;;;;;2.13;1.58;;;;;;;18.01;66.96;96298.84;5091201;28;20075;-43
2022/11/07 01:14:41;;;;;;;2.92;1.80;;;;;;;18.31;65.96;96290.63;5096285;28;20072;-45
2022/11/07 01:17:09;;;;;;;1.80;1.60;;;;;;;18.18;67.57;96301.22;5089418;28;20080;-47
2022/11/07 01:19:37;;;;;;;2.58;1.80;;;;;;;18.13;69.16;96307.13;5089395;28;20083;-42
2022/11/07 01:22:07;;;;;;;2.30;1.60;;;;;;;17.21;80.61;96308.00;5099674;28;20537;-49
2022/11/07 01:24:35;;;;;;;3.17;1.58;;;;;;;16.48;92.31;96315.13;5094405;28;20458;-43
2022/11/07 01:27:04;;;;;;;2.75;1.70;;;;;;;16.59;90.82;96313.84;5107998;28;20079;-41
2022/11/07 01:29:32;;;;;;;2.03;1.83;;;;;;;16.54;90.96;96309.03;5102001;28;20083;-47
2022/11/07 01:32:00;;;;;;;3.20;1.50;;;;;;;15.44;100.00;96328.25;5090036;28;20466;-50
2022/11/07 01:34:29;;;;;;;2.35;1.83;;;;;;;15.53;100.00;96326.34;5098667;28;20072;-43
2022/11/07 01:36:57;;;;;;;2.33;1.60;;;;;;;16.07;98.56;96325.38;5096980;28;20480;-49
2022/11/07 01:39:27;;;;;;;2.45;1.90;;;;;;;15.50;100.00;96325.88;5095823;28;20541;-50
2022/11/07 01:41:55;;;;;;;3.67;1.70;;;;;;;16.23;100.00;96314.56;5095586;28;20076;-45
2022/11/07 01:44:48;;;;;;;2.75;1.83;;;;;;;17.39;84.47;96322.72;5095810;28;20076;-44
2022/11/07 01:47:17;;;;;;;3.55;1.80;;;;;;;17.71;75.21;96316.84;5096260;28;20087;-48
2022/11/07 01:49:46;;;;;;;2.28;1.70;;;;;;;17.77;73.90;96323.31;5101684;28;20079;-47
2022/11/07 01:52:17;;;;;;;2.03;1.48;;;;;;;17.92;77.94;96329.34;5097958;28;20086;-41
2022/11/07 01:54:49;;;;;;;2.83;1.58;;;;;;;16.59;94.84;96340.44;5105195;28;20084;-45
2022/11/07 01:57:21;;;;;;;2.25;1.67;;;;;;;16.29;95.98;96334.31;5102495;28;20083;-49
2022/11/07 01:59:52;;;;;;;1.65;1.42;;;;;;;16.06;89.56;96348.50;5098272;28;20523;-46
2022/11/07 02:02:23;;;;;;;1.92;1.40;;;;;;;16.29;93.47;96334.31;5088908;28;20146;-46
2022/11/07 02:04:51;;;;;;;3.78;1.50;;;;;;;16.40;87.29;96335.69;5096894;28;20067;-47
2022/11/07 02:07:21;;;;;;;2.75;1.40;;;;;;;16.44;90.52;96336.97;5095460;28;20091;-45
2022/11/07 02:09:52;;;;;;;1.95;1.50;;;;;;;16.33;94.76;96333.75;5101933;28;21365;-42
2022/11/07 02:12:22;;;;;;;2.33;1.50;;;;;;;15.83;100.00;96345.91;5096718;28;20522;-49
2022/11/07 02:14:50;;;;;;;3.45;1.60;;;;;;;16.20;100.00;96346.03;5095317;28;20086;-51
2022/11/07 02:17:19;;;;;;;1.63;1.30;;;;;;;15.80;100.00;96348.09;5098366;28;20103;-44
2022/11/07 02:19:49;;;;;;;2.65;1.30;;;;;;;15.64;100.00;96347.19;5098613;28;20086;-48
2022/11/07 02:22:24;;;;;;;1.50;1.38;;;;;;;16.13;100.00;96332.63;5099139;28;20079;-44
2022/11/07 02:24:58;;;;;;;1.80;1.40;;;;;;;16.83;100.00;96321.53;5099750;28;20071;-44
2022/11/07 02:27:29;;;;;;;2.63;1.42;;;;;;;16.43;100.00;96327.34;5099994;28;20075;-46
2022/11/07 02:30:04;;;;;;;2.85;1.42;;;;;;;16.45;100.00;96323.47;5096921;28;20218;-43
2022/11/07 02:32:32;;;;;;;2.42;1.70;;;;;;;16.95;100.00;96321.03;5096838;28;20082;-47
2022/11/07 02:35:02;;;;;;;4.22;1.55;;;;;;;17.13;100.00;96323.28;5097180;28;20078;-50
2022/11/07 02:37:32;;;;;;;1.55;1.30;;;;;;;17.15;100.00;96323.94;5100992;28;20075;-45
2022/11/07 02:40:05;;;;;;;4.32;1.60;;;;;;;17.03;100.00;96324.44;5097926;28;20099;-49
2022/11/07 02:42:43;;;;;;;2.58;1.58;;;;;;;16.65;100.00;96315.72;5098493;28;20460;-43
2022/11/07 02:45:14;;;;;;;2.67;1.20;;;;;;;16.59;100.00;96313.84;5101469;28;20078;-47
2022/11/07 02:47:42;;;;;;;2.22;1.30;;;;;;;16.36;100.00;96314.75;5101436;28;20067;-49
2022/11/07 02:50:13;;;;;;;3.05;1.30;;;;;;;16.64;100.00;96310.59;5102713;28;20470;-45
2022/11/07 02:52:41;;;;;;;;;;;;;;;16.73;100.00;96315.66;5102336;28;20067;-49
2022/11/07 02:55:12;;;;;;;2.75;1.40;;;;;;;16.58;100.00;96314.81;5101736;28;19971;-47
2022/11/07 02:57:41;;;;;;;2.40;1.35;;;;;;;16.67;100.00;96315.56;5100637;28;20071;-50
2022/11/07 03:00:12;;;;;;;1.85;1.40;;;;;;;17.29;100.00;96323.03;5103643;28;20074;-42
2022/11/07 03:02:45;;;;;;;3.60;1.40;;;;;;;17.43;100.00;96321.31;5106103;28;20079;-44
2022/11/07 03:05:14;;;;;;;1.63;1.40;;;;;;;17.88;100.00;96320.09;5101579;28;20074;-45
2022/11/07 03:07:43;;;;;;;1.95;1.52;;;;;;;17.25;100.00;96313.78;5102109;28;20525;-43
2022/11/07 03:10:14;;;;;;;2.17;1.63;;;;;;;16.71;100.00;96330.16;5098550;28;20735;-47
2022/11/07 03:12:42;;;;;;;2.28;1.42;;;;;;;16.87;100.00;96332.63;5096865;28;20063;-47
2022/11/07 03:15:11;;;;;;;2.15;1.65;;;;;;;17.07;100.00;96324.88;5103098;28;20439;-43
2022/11/07 03:17:40;;;;;;;2.78;1.60;;;;;;;16.39;100.00;96332.19;5101462;28;20066;-44
2022/11/07 03:20:10;;;;;;;2.25;1.75;;;;;;;16.64;100.00;96339.88;5088697;28;20082;-51
2022/11/07 03:22:38;;;;;;;2.53;1.65;;;;;;;17.30;100.00;96336.16;5099218;28;20059;-46
2022/11/07 03:25:07;;;;;;;2.72;1.60;;;;;;;16.83;100.00;96347.34;5098991;28;20063;-44
2022/11/07 03:27:45;;;;;;;2.67;1.80;;;;;;;16.97;100.00;96349.16;5098652;28;20083;-48
2022/11/07 03:30:14;;;;;;;1.88;1.52;;;;;;;16.43;100.00;96352.09;5098124;28;20457;-45
2022/11/07 03:32:42;;;;;;;2.05;1.55;;;;;;;16.60;100.00;96355.41;5100907;28;20087;-43
2022/11/07 03:35:11;;;;;;;2.03;1.77;;;;;;;16.63;100.00;96354.22;5096184;28;20118;-45
2022/11/07 03:37:39;;;;;;;2.67;1.70;;;;;;;16.45;100.00;96358.09;5102033;28;20544;-46
2022/11/07 03:40:09;;;;;;;2.03;1.77;;;;;;;16.02;100.00;96362.34;5084691;28;20071;-46
2022/11/07 03:42:42;;;;;;;3.28;1.90;;;;;;;16.26;100.00;96358.63;5095730;28;20318;-43
2022/11/07 03:45:12;;;;;;;2.75;1.70;;;;;;;15.97;100.00;96365.56;5096248;28;20525;-43
2022/11/07 03:47:42;;;;;;;5.47;2.00;;;;;;;16.33;100.00;96355.03;5097711;28;20072;-47
2022/11/07 03:50:12;;;;;;;2.53;1.73;;;;;;;15.96;100.00;96363.06;5099180;28;21232;-49
2022/11/07 03:52:40;;;;;;;;;;;;;;;16.14;100.00;96366.22;5085086;28;20067;-48
2022/11/07 03:55:09;;;;;;;2.78;1.95;;;;;;;16.41;100.00;96345.31;5096186;28;20444;-50
2022/11/07 03:57:38;;;;;;;2.00;1.50;;;;;;;16.25;100.00;96355.13;5102778;28;20080;-43
2022/11/07 04:00:09;;;;;;;2.40;1.90;;;;;;;16.01;100.00;96364.19;5093718;28;20083;-45
2022/11/07 04:02:38;;;;;;;2.35;1.48;;;;;;;16.12;100.00;96374.38;5100642;28;20547;-51
2022/11/07 04:05:07;;;;;;;2.42;1.83;;;;;;;16.48;100.00;96355.06;5099016;28;20102;-43
2022/11/07 04:07:35;;;;;;;1.60;1.50;;;;;;;16.21;100.00;96367.16;5096103;28;20075;-47
2022/11/07 04:10:04;;;;;;;2.53;1.67;;;;;;;16.21;100.00;96366.31;5094441;28;20461;-45
2022/11/07 04:18:06;;;;;;;5.40;1.40;;;;;;;16.27;100.00;96362.91;5103066;28;20094;-45
2022/11/07 04:20:34;;;;;;;2.10;1.67;;;;;;;15.87;100.00;96368.47;5099911;28;20075;-45
2022/11/07 04:23:02;;;;;;;2.75;1.63;;;;;;;16.12;100.00;96366.41;5100378;28;20083;-48
2022/11/07 04:28:17;;;;;;;2.00;1.75;;;;;;;16.72;100.00;96377.06;5099554;28;20084;-44
2022/11/07 04:30:47;;;;;;;4.47;1.50;;;;;;;15.78;100.00;96392.66;5103050;28;20091;-42
2022/11/07 04:33:15;;;;;;;2.53;1.87;;;;;;;16.28;100.00;96392.03;5102200;28;20075;-43
2022/11/07 04:35:44;;;;;;;3.15;1.90;;;;;;;16.57;100.00;96382.41;5092068;28;20078;-45
2022/11/07 04:38:13;;;;;;;3.72;1.77;;;;;;;16.30;100.00;96390.00;5099138;28;20068;-50
2022/11/07 04:40:41;;;;;;;4.00;1.85;;;;;;;16.81;100.00;96383.97;5102173;28;20079;-42
2022/11/07 04:43:10;;;;;;;2.47;1.60;;;;;;;16.79;100.00;96386.84;5098632;28;20071;-42
2022/11/07 04:45:39;;;;;;;10.32;2.10;;;;;;;16.44;100.00;96388.34;5097178;28;20079;-44
2022/11/07 04:48:11;;;;;;;2.40;1.60;;;;;;;16.72;100.00;96382.38;5094702;28;20106;-44
2022/11/07 04:50:40;;;;;;;2.30;1.70;;;;;;;16.83;100.00;96385.44;5094378;28;20072;-45
2022/11/07 04:53:11;;;;;;;2.60;1.95;;;;;;;17.08;100.00;96385.13;5098021;28;20079;-45
2022/11/07 04:55:40;;;;;;;2.10;1.60;;;;;;;17.11;100.00;96379.44;5092881;28;20515;-44
2022/11/07 04:58:09;;;;;;;4.35;1.83;;;;;;;16.67;100.00;96385.59;5098543;28;20102;-48
2022/11/07 05:00:37;;;;;;;3.42;1.92;;;;;;;17.02;100.00;96383.22;5095695;28;20556;-49
2022/11/07 05:03:05;;;;;;;3.05;1.90;;;;;;;16.74;100.00;96388.34;5097669;28;20475;-46
2022/11/07 05:05:35;;;;;;;1.98;1.77;;;;;;;17.21;100.00;96382.63;5096060;28;20079;-48
2022/11/07 05:08:04;;;;;;;3.03;1.92;;;;;;;16.80;100.00;96388.47;5100038;28;20074;-44
2022/11/07 05:10:33;;;;;;;3.10;1.67;;;;;;;17.21;100.00;96387.13;5097289;28;20087;-48
2022/11/07 05:13:02;;;;;;;2.30;1.70;;;;;;;17.48;98.71;96389.06;5103431;28;20080;-45
2022/11/07 05:15:30;;;;;;;2.30;1.70;;;;;;;17.52;95.24;96397.50;5096054;28;20076;-46
2022/11/07 05:17:58;;;;;;;1.80;1.65;;;;;;;17.46;95.75;96396.41;5098277;28;20522;-47
2022/11/07 05:20:29;;;;;;;3.63;1.77;;;;;;;17.56;93.51;96391.59;5096873;28;20312;-43
2022/11/07 05:23:17;;;;;;;;;;;;;;;17.00;100.00;96398.56;5094394;28;20082;-49
2022/11/07 05:25:48;;;;;;;2.95;1.80;;;;;;;17.15;100.00;96394.03;5092094;28;19967;-43
2022/11/07 05:28:18;;;;;;;2.08;1.45;;;;;;;16.80;100.00;96396.47;5096639;28;20078;-46
2022/11/07 05:30:58;;;;;;;2.08;1.60;;;;;;;17.20;100.00;96396.94;5097139;28;20082;-42
2022/11/07 05:33:26;;;;;;;4.55;2.03;;;;;;;17.21;98.68;96395.13;5096598;28;20102;-46
2022/11/07 05:35:55;;;;;;;2.78;1.90;;;;;;;17.10;99.89;96399.06;5098206;28;20090;-47
2022/11/07 05:38:24;;;;;;;3.67;1.40;;;;;;;17.20;95.47;96401.44;5097438;28;20079;-48
2022/11/07 05:40:53;;;;;;;3.13;1.43;;;;;;;16.67;100.00;96414.91;5094536;28;20197;-43
2022/11/07 05:43:21;;;;;;;2.45;1.45;;;;;;;16.54;100.00;96420.84;5097992;28;20090;-43
2022/11/07 05:45:51;;;;;;;3.20;1.75;;;;;;;16.57;100.00;96420.50;5100439;28;20391;-47
2022/11/07 05:48:19;;;;;;;3.05;1.65;;;;;;;16.40;100.00;96426.16;5097463;28;20498;-49
2022/11/07 05:50:47;;;;;;;2.58;1.67;;;;;;;15.78;100.00;96425.38;5098827;28;20522;-49
2022/11/07 05:53:16;;;;;;;3.83;1.70;;;;;;;16.38;100.00;96421.88;5100744;28;20086;-47
2022/11/07 05:55:47;;;;;;;3.00;1.70;;;;;;;16.35;100.00;96424.88;5098721;28;20086;-51
2022/11/07 05:58:15;;;;;;;2.10;1.48;;;;;;;16.29;100.00;96424.78;5100380;28;20090;-46
2022/11/07 06:00:43;;;;;;;2.53;1.50;;;;;;;15.74;100.00;96426.75;5095772;28;20090;-45
2022/11/07 06:03:12;;;;;;;2.58;1.58;;;;;;;16.30;100.00;96429.09;5099043;28;20161;-46
2022/11/07 06:05:42;;;;;;;2.25;1.60;;;;;;;16.10;100.00;96429.63;5102569;28;20082;-43
2022/11/07 06:08:12;;;;;;;2.45;1.50;;;;;;;16.57;100.00;96432.97;5099041;28;20097;-44
2022/11/07 06:10:41;;;;;;;4.38;1.85;;;;;;;16.23;100.00;96436.97;5102714;28;20490;-46
2022/11/07 06:13:13;;;;;;;2.35;1.50;;;;;;;16.71;97.31;96441.97;5100073;28;20093;-44
2022/11/07 06:15:44;;;;;;;2.83;1.67;;;;;;;16.53;100.00;96445.00;5094829;28;20076;-45
2022/11/07 06:18:14;;;;;;;2.17;1.75;;;;;;;16.58;100.00;96447.94;5103542;28;20071;-50
2022/11/07 06:20:42;;;;;;;3.17;1.50;;;;;;;16.83;98.46;96448.56;5106339;28;20086;-49
2022/11/07 06:23:11;;;;;;;2.03;1.70;;;;;;;17.22;89.88;96440.22;5099165;28;20508;-44
2022/11/07 06:25:40;;;;;;;2.75;1.60;;;;;;;16.97;94.98;96439.72;5096530;28;20087;-49
2022/11/07 06:28:11;;;;;;;2.88;1.60;;;;;;;17.48;85.84;96441.53;5098656;28;20079;-48
2022/11/07 06:30:40;;;;;;;2.60;1.77;;;;;;;17.51;84.01;96439.31;5100701;28;20126;-47
2022/11/07 06:33:12;;;;;;;3.75;1.80;;;;;;;17.02;89.54;96439.16;5098099;28;20109;-47
2022/11/07 06:35:41;;;;;;;2.30;1.80;;;;;;;17.55;83.38;96437.94;5099470;28;20092;-42
2022/11/07 06:38:11;;;;;;;2.50;1.70;;;;;;;17.75;79.71;96440.81;5103685;28;20075;-49
2022/11/07 06:40:40;;;;;;;2.30;1.65;;;;;;;17.82;78.79;96446.25;5102960;28;20125;-44
2022/11/07 06:43:09;;;;;;;3.63;1.90;;;;;;;17.88;77.42;96450.81;5099012;28;20075;-50
2022/11/07 06:45:39;;;;;;;2.88;1.80;;;;;;;17.90;76.73;96450.66;5102812;28;20090;-41
2022/11/07 06:48:08;;;;;;;2.67;1.80;;;;;;;17.83;77.07;96447.91;5098760;28;20087;-44
2022/11/07 06:50:37;;;;;;;4.15;2.00;;;;;;;17.86;76.71;96450.19;5102134;28;21023;-42
2022/11/07 06:53:12;;;;;;;2.80;1.70;;;;;;;18.00;75.88;96454.66;5102230;28;20083;-45
2022/11/07 06:55:42;;;;;;;2.90;1.85;;;;;;;18.05;73.90;96458.56;5103514;28;20079;-49
2022/11/07 06:58:10;;;;;;;3.75;1.60;;;;;;;17.94;73.00;96465.25;5100825;28;20072;-41
2022/11/07 07:00:40;;;;;;;1.85;1.52;;;;;;;18.24;71.55;96450.75;5102274;28;20079;-47
2022/11/07 07:03:10;;;;;;;3.43;1.70;;;;;;;18.32;69.36;96460.44;5104900;28;20079;-49
2022/11/07 07:06:04;;;;;;;4.15;1.80;;;;;;;18.07;70.59;96465.38;5098145;28;20666;-45
2022/11/07 07:08:57;;;;;;;2.47;1.50;;;;;;;17.96;70.07;96474.72;5103048;28;20533;-44
2022/11/07 07:11:25;;;;;;;2.22;1.40;;;;;;;18.20;68.16;96480.66;5103795;28;20079;-45
2022/11/07 07:13:55;;;;;;;3.67;1.60;;;;;;;18.30;66.81;96473.16;5102221;28;20078;-47
2022/11/07 07:16:30;;;;;;;3.95;1.63;;;;;;;18.61;64.08;96469.28;5098825;28;20098;-42
2022/11/07 07:18:59;;;;;;;3.33;1.83;;;;;;;17.97;69.10;96481.69;5096805;28;20161;-48
2022/11/07 07:21:27;;;;;;;4.15;1.88;;;;;;;18.34;65.75;96489.63;5100544;28;20506;-46
2022/11/07 07:23:55;;;;;;;3.55;2.00;;;;;;;18.91;62.50;96486.78;5098998;28;20075;-43
2022/11/07 07:26:24;;;;;;;4.43;1.90;;;;;;;18.63;64.60;96486.78;5099120;28;20098;-53
2022/11/07 07:28:52;;;;;;;4.00;1.60;;;;;;;18.99;61.62;96477.78;5098444;28;20071;-50
2022/11/07 07:31:22;;;;;;;3.38;1.60;;;;;;;19.13;59.50;96470.66;5097158;28;20109;-47
2022/11/07 07:33:52;;;;;;;3.60;1.73;;;;;;;19.16;60.11;96470.25;5095660;28;20063;-46
2022/11/07 07:36:22;;;;;;;2.97;1.50;;;;;;;19.18;58.36;96476.25;5103949;28;20513;-46
2022/11/07 07:38:51;;;;;;;3.33;1.70;;;;;;;19.11;62.02;96486.09;5098049;28;20067;-44
2022/11/07 07:41:19;;;;;;;3.67;1.60;;;;;;;19.43;59.38;96480.06;5103119;28;20079;-49
2022/11/07 07:43:47;;;;;;;3.33;1.70;;;;;;;19.25;60.95;96477.09;5094358;28;20083;-47
2022/11/07 07:46:20;;;;;;;2.25;1.30;;;;;;;19.43;60.28;96487.25;5101811;28;20454;-45
2022/11/07 07:48:48;;;;;;;2.58;1.23;;;;;;;19.70;59.44;96485.53;5105220;28;20474;-48
2022/11/07 07:51:18;;;;;;;2.25;1.40;;;;;;;19.13;62.44;96489.38;5098223;28;20177;-44
2022/11/07 07:53:47;;;;;;;2.67;1.40;;;;;;;19.38;64.59;96487.06;5105041;28;20087;-47
2022/11/07 07:56:16;;;;;;;1.88;1.40;;;;;;;19.62;63.18;96483.84;5101585;28;20087;-43
2022/11/07 07:58:45;;;;;;;2.95;1.75;;;;;;;19.98;59.70;96488.06;5100878;28;20083;-46
2022/11/07 08:01:13;;;;;;;2.55;1.58;;;;;;;20.10;56.77;96482.97;5094110;28;20079;-42
2022/11/07 08:03:42;;;;;;;2.53;1.50;;;;;;;19.95;59.17;96475.09;5098663;28;20063;-46
2022/11/07 08:06:31;;;;;;;3.20;1.38;;;;;;;20.19;59.58;96473.69;5095137;28;20086;-50
2022/11/07 08:08:59;;;;;;;2.42;1.30;;;;;;;20.25;59.24;96478.22;5095810;28;20080;-48
2022/11/07 08:11:28;;;;;;;2.85;1.30;;;;;;;20.37;59.54;96471.25;5095774;28;20076;-43
2022/11/07 08:13:57;;;;;;;2.92;1.30;;;;;;;20.09;58.53;96482.13;5100629;28;20091;-50
2022/11/07 08:16:29;;;;;;;2.30;1.55;;;;;;;20.36;59.64;96474.13;5099146;28;20072;-44
2022/11/07 08:18:57;;;;;;;3.05;1.50;;;;;;;20.30;60.42;96478.47;5097914;28;20075;-48
2022/11/07 08:21:25;;;;;;;2.42;1.50;;;;;;;20.81;57.95;96479.69;5098063;28;20550;-45
2022/11/07 08:23:55;;;;;;;2.33;1.63;;;;;;;20.36;59.31;96477.63;5100762;28;20111;-47
2022/11/07 08:26:24;;;;;;;2.25;1.20;;;;;;;20.63;59.00;96478.47;5085406;28;20071;-48
2022/11/07 08:28:54;;;;;;;3.88;1.17;;;;;;;21.15;56.15;96475.91;5105215;28;20087;-49
2022/11/07 08:31:22;;;;;;;1.80;1.17;;;;;;;21.24;56.42;96484.56;5102737;28;20091;-47
2022/11/07 08:33:50;;;;;;;5.35;1.20;;;;;;;21.68;55.26;96480.25;5103664;28;20079;-49
2022/11/07 08:36:19;;;;;;;1.30;1.15;;;;;;;21.04;56.68;96489.97;5096565;28;20087;-43
2022/11/07 08:38:48;;;;;;;1.45;1.00;;;;;;;21.25;59.12;96470.91;5098440;28;20084;-49
2022/11/07 08:41:17;;;;;;;2.55;1.00;;;;;;;20.08;61.31;96498.41;5097072;28;20086;-43
2022/11/07 08:43:49;;;;;;;3.40;0.90;;;;;;;20.19;61.02;96499.66;5100066;28;20086;-45
2022/11/07 08:46:18;;;;;;;5.68;0.85;;;;;;;19.82;62.89;96505.34;5099524;28;20075;-45
2022/11/07 08:48:46;;;;;;;2.53;0.90;;;;;;;20.09;66.22;96492.81;5100321;28;20525;-44
2022/11/07 08:51:14;;;;;;;0.93;0.60;;;;;;;19.64;67.29;96505.06;5101414;28;20106;-47
2022/11/07 08:53:43;;;;;;;1.83;0.80;;;;;;;19.68;69.61;96496.47;5099258;28;20489;-46
2022/11/07 08:56:11;;;;;;;1.77;1.00;;;;;;;19.97;69.91;96493.66;5098188;28;20080;-46
2022/11/07 08:58:41;;;;;;;4.05;1.02;;;;;;;19.98;70.29;96495.28;5100043;28;20083;-48
2022/11/07 09:01:10;;;;;;;5.07;1.10;;;;;;;19.99;65.90;96489.72;5099555;28;21063;-48
2022/11/07 09:03:39;;;;;;;2.10;0.82;;;;;;;20.51;65.58;96503.41;5099463;28;20087;-49
2022/11/07 09:06:24;;;;;;;2.95;0.98;;;;;;;20.75;64.32;96494.75;5098062;28;20090;-45
2022/11/07 09:08:53;;;;;;;2.67;1.08;;;;;;;20.01;68.91;96495.72;5096255;28;20087;-46
2022/11/07 09:11:21;;;;;;;2.13;0.85;;;;;;;20.47;63.75;96505.63;5094566;28;20075;-45
2022/11/07 09:13:52;;;;;;;1.90;1.00;;;;;;;20.62;66.50;96506.31;5094471;28;20074;-46
2022/11/07 09:16:20;;;;;;;;;;;;;;;20.18;66.88;96508.72;5098425;28;20086;-48
2022/11/07 09:18:49;;;;;;;1.70;0.88;;;;;;;;;;5099326;28;19963;-50
2022/11/07 09:21:18;;;;;;;1.75;0.80;;;;;;;21.00;67.63;96502.97;5102881;28;20078;-46
2022/11/07 09:23:50;;;;;;;2.70;1.00;;;;;;;21.25;61.98;96505.78;5098583;28;20473;-48
2022/11/07 09:26:18;;;;;;;1.35;0.90;;;;;;;21.13;66.08;96510.16;5093856;28;20459;-49
2022/11/07 09:28:47;;;;;;;1.67;1.08;;;;;;;21.54;70.28;96506.34;5095947;28;20082;-46
2022/11/07 09:31:22;;;;;;;4.10;1.00;;;;;;;21.55;60.23;96505.31;5081263;28;20070;-47
2022/11/07 09:33:51;;;;;;;3.13;1.10;;;;;;;21.42;62.48;96503.50;5100279;28;20080;-51
2022/11/07 09:36:21;;;;;;;1.88;0.90;;;;;;;21.22;58.66;96513.44;5098292;28;20084;-48
2022/11/07 09:38:49;;;;;;;3.70;0.95;;;;;;;21.14;58.38;96516.34;5095875;28;20082;-44
2022/11/07 09:41:29;;;;;;;0.93;0.70;;;;;;;20.68;58.28;96515.38;5080490;28;20063;-47
2022/11/07 09:44:04;;;;;;;0.98;0.70;;;;;;;21.06;59.90;96510.19;5099822;28;20071;-48
2022/11/07 09:46:42;;;;;;;2.47;0.77;;;;;;;21.75;65.40;96511.44;5101382;28;20075;-44
2022/11/07 09:49:15;;;;;;;1.65;0.80;;;;;;;20.96;57.25;96508.97;5095428;28;20075;-47
2022/11/07 09:51:47;;;;;;;1.83;0.70;;;;;;;20.80;55.51;96513.72;5100643;28;20083;-43
2022/11/07 09:54:18;;;;;;;2.42;0.90;;;;;;;20.27;58.51;96518.22;5096416;28;20087;-47
2022/11/07 09:56:46;;;;;;;1.75;0.73;;;;;;;21.08;60.06;96512.63;5100645;28;20079;-47
2022/11/07 09:59:20;;;;;;;2.53;0.60;;;;;;;21.35;57.77;96499.19;5095019;28;20526;-50
2022/11/07 10:01:49;;;;;;;1.83;0.50;;;;;;;20.60;57.78;96507.53;5092564;28;20091;-43
2022/11/07 10:04:20;;;;;;;1.00;0.85;;;;;;;21.10;57.72;96499.84;5097702;28;20091;-50
2022/11/07 10:06:57;;;;;;;1.98;0.60;;;;;;;21.69;59.99;96495.34;5098295;28;20534;-51
2022/11/07 10:09:33;;;;;;;3.22;0.60;;;;;;;20.94;58.59;96505.66;5098547;28;20471;-49
2022/11/07 10:12:07;;;;;;;1.77;0.70;;;;;;;21.23;61.12;96502.50;5097392;28;20090;-44
2022/11/07 10:14:44;;;;;;;2.00;0.60;;;;;;;21.44;58.81;96496.06;5097883;28;20483;-47
2022/11/07 10:17:19;;;;;;;1.20;0.70;;;;;;;21.76;56.23;96502.31;5096156;28;20071;-48
2022/11/07 10:20:04;;;;;;;1.92;0.63;;;;;;;22.16;53.17;96499.47;5095940;28;20082;-43
2022/11/07 10:22:42;;;;;;;1.25;0.55;;;;;;;21.63;61.91;96501.56;5095431;28;20067;-45
2022/11/07 10:25:20;;;;;;;1.65;0.70;;;;;;;21.42;59.25;96500.81;5096143;28;20130;-45
2022/11/07 10:27:52;;;;;;;1.17;0.50;;;;;;;21.66;61.83;96501.13;5096208;28;20075;-48
2022/11/07 10:30:21;;;;;;;4.88;0.73;;;;;;;21.64;60.12;96498.66;5096041;28;20467;-50
2022/11/07 10:32:57;;;;;;;1.00;0.60;;;;;;;21.42;63.10;96490.09;5092796;28;20074;-43
2022/11/07 10:35:29;;;;;;;2.08;0.65;;;;;;;21.45;62.04;96494.22;5096576;28;20465;-47
2022/11/07 10:37:59;;;;;;;1.77;0.60;;;;;;;21.26;59.62;96496.69;5100098;28;20059;-44
2022/11/07 10:40:32;;;;;;;3.08;0.70;;;;;;;21.38;65.11;96491.56;5100938;28;20079;-48
2022/11/07 10:43:02;;;;;;;1.08;0.40;;;;;;;21.20;63.24;96497.56;5101943;28;20071;-46
2022/11/07 10:45:31;;;;;;;1.45;0.57;;;;;;;21.14;62.14;96500.25;5095542;28;20064;-43
2022/11/07 10:48:02;;;;;;;1.00;0.60;;;;;;;21.56;62.80;96494.34;5097948;28;20079;-50
2022/11/07 10:50:31;;;;;;;2.83;0.70;;;;;;;21.64;58.98;96492.47;5101539;28;20079;-43
2022/11/07 10:53:01;;;;;;;2.45;0.60;;;;;;;21.22;59.55;96500.84;5100518;28;20125;-51
2022/11/07 10:55:33;;;;;;;1.47;0.43;;;;;;;21.43;58.42;96486.34;5099887;28;20431;-50
2022/11/07 10:58:06;;;;;;;1.65;0.55;;;;;;;21.47;59.67;96490.28;5097950;28;20076;-46
2022/11/07 11:00:38;;;;;;;2.17;0.57;;;;;;;22.45;62.49;96491.81;5095946;28;20083;-49
2022/11/07 11:03:22;;;;;;;1.17;0.50;;;;;;;22.43;63.91;96496.56;5100972;28;20552;-48
2022/11/07 11:06:09;;;;;;;1.83;0.50;;;;;;;21.96;60.88;96477.25;5102091;28;20087;-48
2022/11/07 11:08:39;;;;;;;1.25;0.50;;;;;;;21.68;58.50;96494.53;5102203;28;20521;-46
2022/11/07 11:11:30;;;;;;;1.02;0.40;;;;;;;21.98;57.67;96485.88;5100567;28;20465;-45
2022/11/07 11:14:07;;;;;;;2.08;0.70;;;;;;;21.88;59.79;96491.72;5096224;28;20078;-44
2022/11/07 11:16:37;;;;;;;1.88;0.43;;;;;;;21.87;57.01;96478.53;5081097;28;20071;-49
2022/11/07 11:19:17;;;;;;;0.70;0.47;;;;;;;21.82;58.20;96481.88;5100332;28;20099;-47
2022/11/07 11:21:47;;;;;;;1.92;0.60;;;;;;;21.99;53.90;96482.19;5099816;28;20087;-45
2022/11/07 11:24:26;;;;;;;2.63;0.80;;;;;;;22.70;52.00;96475.66;5102023;28;20532;-48
2022/11/07 11:26:56;;;;;;;4.03;0.70;;;;;;;22.35;59.86;96473.47;5101394;28;20083;-46
2022/11/07 11:29:29;;;;;;;1.13;0.50;;;;;;;22.24;58.14;96472.31;5104120;28;20517;-53
2022/11/07 11:32:04;;;;;;;0.50;0.40;;;;;;;21.49;58.56;96480.16;5097761;28;20081;-43
2022/11/07 11:34:41;;;;;;;1.05;0.50;;;;;;;21.83;58.90;96474.63;5103803;28;20074;-47
2022/11/07 11:37:13;;;;;;;1.33;0.40;;;;;;;21.98;56.68;96467.91;5102374;28;20090;-45
2022/11/07 11:39:45;;;;;;;2.22;0.50;;;;;;;22.29;56.10;96466.28;5101275;28;20083;-45
2022/11/07 11:42:21;;;;;;;2.25;0.85;;;;;;;22.48;52.42;96461.81;5105998;28;20051;-44
2022/11/07 11:44:51;;;;;;;1.77;0.70;;;;;;;21.81;57.60;96453.34;5098354;28;20094;-45
2022/11/07 11:47:22;;;;;;;1.92;0.60;;;;;;;21.97;56.47;96455.53;5096756;28;20146;-51
2022/11/07 11:49:54;;;;;;;1.15;0.60;;;;;;;21.94;56.19;96463.19;5100438;28;20071;-46
2022/11/07 11:52:24;;;;;;;1.83;0.50;;;;;;;22.09;59.36;96460.19;5101551;28;20071;-43
2022/11/07 11:54:55;;;;;;;2.13;0.50;;;;;;;22.48;57.78;96446.50;5096810;28;20076;-50
2022/11/07 11:57:27;;;;;;;2.08;0.75;;;;;;;22.18;53.64;96450.88;5100861;28;20431;-44
2022/11/07 12:00:05;;;;;;;4.28;0.60;;;;;;;22.03;51.94;96457.34;5099626;28;20075;-50